sensor_id;sensor_type;location;lat;lon;timestamp;temperature;humidity
11617;DHT22;5864;52.998;9.068;2022-12-17T00:00:00;-3.10;99.90
11617;DHT22;5864;52.998;9.068;2022-12-17T00:02:45;-3.00;99.90
11617;DHT22;5864;52.998;9.068;2022-12-17T00:05:30;-3.10;99.90
11617;DHT22;5864;52.998;9.068;2022-12-17T00:08:15;-3.20;99.90
11617;DHT22;5864;52.998;9.068;2022-12-17T00:11:00;-3.10;99.90
11617;DHT22;5864;52.998;9.068;2022-12-17T00:13:46;-3.10;99.90
11617;DHT22;5864;52.998;9.068;2022-12-17T00:16:31;-3.10;99.90
11617;DHT22;5864;52.998;9.068;2022-12-17T00:19:16;-3.10;99.90
11617;DHT22;5864;52.998;9.068;2022-12-17T00:22:00;-3.20;99.90
11617;DHT22;5864;52.998;9.068;2022-12-17T00:24:45;-3.10;99.90
11617;DHT22;5864;52.998;9.068;2022-12-17T00:27:30;-3.20;99.90
11617;DHT22;5864;52.998;9.068;2022-12-17T00:30:31;-3.20;99.90
11617;DHT22;5864;52.998;9.068;2022-12-17T00:33:16;-3.20;99.90
11617;DHT22;5864;52.998;9.068;2022-12-17T00:36:01;-3.30;99.90
11617;DHT22;5864;52.998;9.068;2022-12-17T00:38:46;-3.30;99.90
11617;DHT22;5864;52.998;9.068;2022-12-17T00:41:31;-3.40;99.90
11617;DHT22;5864;52.998;9.068;2022-12-17T00:44:28;-3.40;99.90
11617;DHT22;5864;52.998;9.068;2022-12-17T00:47:14;-3.40;99.90
11617;DHT22;5864;52.998;9.068;2022-12-17T00:49:59;-3.40;99.90
11617;DHT22;5864;52.998;9.068;2022-12-17T00:52:44;-3.40;99.90
11617;DHT22;5864;52.998;9.068;2022-12-17T00:55:29;-3.40;99.90
11617;DHT22;5864;52.998;9.068;2022-12-17T00:58:14;-3.50;99.90
11617;DHT22;5864;52.998;9.068;2022-12-17T01:01:00;-3.50;99.90
11617;DHT22;5864;52.998;9.068;2022-12-17T01:03:46;-3.50;99.90
11617;DHT22;5864;52.998;9.068;2022-12-17T01:06:30;-3.60;99.90
11617;DHT22;5864;52.998;9.068;2022-12-17T01:09:15;-3.60;99.90
11617;DHT22;5864;52.998;9.068;2022-12-17T01:12:00;-3.70;99.90
11617;DHT22;5864;52.998;9.068;2022-12-17T01:14:45;-3.70;99.90
11617;DHT22;5864;52.998;9.068;2022-12-17T01:17:30;-3.60;99.90
11617;DHT22;5864;52.998;9.068;2022-12-17T01:20:16;-3.60;99.90
11617;DHT22;5864;52.998;9.068;2022-12-17T01:23:01;-3.50;99.90
11617;DHT22;5864;52.998;9.068;2022-12-17T01:25:51;-3.60;99.90
11617;DHT22;5864;52.998;9.068;2022-12-17T01:28:36;-3.50;99.90
11617;DHT22;5864;52.998;9.068;2022-12-17T01:31:21;-3.50;99.90
11617;DHT22;5864;52.998;9.068;2022-12-17T01:34:06;-3.50;99.90
11617;DHT22;5864;52.998;9.068;2022-12-17T01:36:52;-3.50;99.90
11617;DHT22;5864;52.998;9.068;2022-12-17T01:39:37;-3.60;99.90
11617;DHT22;5864;52.998;9.068;2022-12-17T01:42:22;-3.60;99.90
11617;DHT22;5864;52.998;9.068;2022-12-17T01:45:09;-3.60;99.90
11617;DHT22;5864;52.998;9.068;2022-12-17T01:47:58;-3.60;99.90
11617;DHT22;5864;52.998;9.068;2022-12-17T01:50:48;-3.70;99.90
11617;DHT22;5864;52.998;9.068;2022-12-17T01:53:52;-3.70;99.90
11617;DHT22;5864;52.998;9.068;2022-12-17T01:56:40;-3.70;99.90
11617;DHT22;5864;52.998;9.068;2022-12-17T01:59:34;-3.70;99.90
11617;DHT22;5864;52.998;9.068;2022-12-17T02:02:19;-3.80;99.90
11617;DHT22;5864;52.998;9.068;2022-12-17T02:05:04;-3.80;99.90
11617;DHT22;5864;52.998;9.068;2022-12-17T02:07:54;-3.80;99.90
11617;DHT22;5864;52.998;9.068;2022-12-17T02:10:47;-3.80;99.90
11617;DHT22;5864;52.998;9.068;2022-12-17T02:13:37;-3.80;99.90
11617;DHT22;5864;52.998;9.068;2022-12-17T02:16:26;-3.80;99.90
11617;DHT22;5864;52.998;9.068;2022-12-17T02:19:26;-3.90;99.90
11617;DHT22;5864;52.998;9.068;2022-12-17T02:22:20;-3.80;99.90
11617;DHT22;5864;52.998;9.068;2022-12-17T02:25:34;-3.90;99.90
11617;DHT22;5864;52.998;9.068;2022-12-17T02:28:24;-4.00;99.90
11617;DHT22;5864;52.998;9.068;2022-12-17T02:31:09;-3.90;99.90
11617;DHT22;5864;52.998;9.068;2022-12-17T02:33:56;-3.90;99.90
11617;DHT22;5864;52.998;9.068;2022-12-17T02:36:41;-4.00;99.90
11617;DHT22;5864;52.998;9.068;2022-12-17T02:39:26;-4.00;99.90
11617;DHT22;5864;52.998;9.068;2022-12-17T02:42:11;-4.00;99.90
11617;DHT22;5864;52.998;9.068;2022-12-17T02:44:58;-4.10;99.90
11617;DHT22;5864;52.998;9.068;2022-12-17T02:47:43;-4.10;99.90
11617;DHT22;5864;52.998;9.068;2022-12-17T02:50:28;-4.10;99.90
11617;DHT22;5864;52.998;9.068;2022-12-17T02:53:13;-4.10;99.90
11617;DHT22;5864;52.998;9.068;2022-12-17T02:55:58;-4.10;99.90
11617;DHT22;5864;52.998;9.068;2022-12-17T02:58:43;-4.20;99.90
11617;DHT22;5864;52.998;9.068;2022-12-17T03:01:29;-4.20;99.90
11617;DHT22;5864;52.998;9.068;2022-12-17T03:04:14;-4.20;99.90
11617;DHT22;5864;52.998;9.068;2022-12-17T03:06:59;-4.30;99.90
11617;DHT22;5864;52.998;9.068;2022-12-17T03:09:44;-4.30;99.90
11617;DHT22;5864;52.998;9.068;2022-12-17T03:12:37;-4.40;99.90
11617;DHT22;5864;52.998;9.068;2022-12-17T03:15:30;-4.40;99.90
11617;DHT22;5864;52.998;9.068;2022-12-17T03:18:16;-6.10;99.90
11617;DHT22;5864;52.998;9.068;2022-12-17T03:21:01;-4.60;99.90
11617;DHT22;5864;52.998;9.068;2022-12-17T03:23:46;-4.60;99.90
11617;DHT22;5864;52.998;9.068;2022-12-17T03:26:31;-4.60;99.90
11617;DHT22;5864;52.998;9.068;2022-12-17T03:29:16;-4.60;99.90
11617;DHT22;5864;52.998;9.068;2022-12-17T03:32:01;-4.70;99.90
11617;DHT22;5864;52.998;9.068;2022-12-17T03:34:47;-4.70;99.90
11617;DHT22;5864;52.998;9.068;2022-12-17T03:37:32;-4.70;99.90
11617;DHT22;5864;52.998;9.068;2022-12-17T03:40:16;-4.80;99.90
11617;DHT22;5864;52.998;9.068;2022-12-17T03:43:05;-4.80;99.90
11617;DHT22;5864;52.998;9.068;2022-12-17T03:45:53;-4.80;99.90
11617;DHT22;5864;52.998;9.068;2022-12-17T03:48:41;-4.90;99.90
11617;DHT22;5864;52.998;9.068;2022-12-17T03:51:27;-4.90;99.90
11617;DHT22;5864;52.998;9.068;2022-12-17T03:54:12;-4.90;99.90
11617;DHT22;5864;52.998;9.068;2022-12-17T03:56:57;-4.80;99.90
11617;DHT22;5864;52.998;9.068;2022-12-17T03:59:42;-4.90;99.90
11617;DHT22;5864;52.998;9.068;2022-12-17T04:02:27;-4.80;99.90
11617;DHT22;5864;52.998;9.068;2022-12-17T04:05:12;-4.80;99.90
11617;DHT22;5864;52.998;9.068;2022-12-17T04:07:59;-4.80;99.90
11617;DHT22;5864;52.998;9.068;2022-12-17T04:10:58;-4.80;99.90
11617;DHT22;5864;52.998;9.068;2022-12-17T04:13:43;-4.80;99.90
11617;DHT22;5864;52.998;9.068;2022-12-17T04:16:28;-4.80;99.90
11617;DHT22;5864;52.998;9.068;2022-12-17T04:19:13;-5.00;99.90
11617;DHT22;5864;52.998;9.068;2022-12-17T04:21:57;-5.10;99.90
11617;DHT22;5864;52.998;9.068;2022-12-17T04:24:44;-5.20;99.90
11617;DHT22;5864;52.998;9.068;2022-12-17T04:27:28;-5.10;99.90
11617;DHT22;5864;52.998;9.068;2022-12-17T04:30:13;-5.00;99.90
11617;DHT22;5864;52.998;9.068;2022-12-17T04:32:58;-5.00;99.90
11617;DHT22;5864;52.998;9.068;2022-12-17T04:35:43;-5.00;99.90
11617;DHT22;5864;52.998;9.068;2022-12-17T04:38:28;-5.00;99.90
11617;DHT22;5864;52.998;9.068;2022-12-17T04:41:14;-5.00;99.90
11617;DHT22;5864;52.998;9.068;2022-12-17T04:43:59;-5.10;99.90
11617;DHT22;5864;52.998;9.068;2022-12-17T04:46:44;-5.00;99.90
11617;DHT22;5864;52.998;9.068;2022-12-17T04:49:29;-5.00;99.90
11617;DHT22;5864;52.998;9.068;2022-12-17T04:52:14;-5.10;99.90
11617;DHT22;5864;52.998;9.068;2022-12-17T04:54:59;-5.10;99.90
11617;DHT22;5864;52.998;9.068;2022-12-17T04:57:48;-5.10;99.90
11617;DHT22;5864;52.998;9.068;2022-12-17T05:00:33;-5.10;99.90
11617;DHT22;5864;52.998;9.068;2022-12-17T05:03:18;-5.10;99.90
11617;DHT22;5864;52.998;9.068;2022-12-17T05:06:02;-5.10;99.90
11617;DHT22;5864;52.998;9.068;2022-12-17T05:08:48;-5.10;99.90
11617;DHT22;5864;52.998;9.068;2022-12-17T05:11:32;-5.20;99.90
11617;DHT22;5864;52.998;9.068;2022-12-17T05:14:18;-5.20;99.90
11617;DHT22;5864;52.998;9.068;2022-12-17T05:17:03;-5.20;99.90
11617;DHT22;5864;52.998;9.068;2022-12-17T05:19:49;-5.20;99.90
11617;DHT22;5864;52.998;9.068;2022-12-17T05:22:34;-5.30;99.90
11617;DHT22;5864;52.998;9.068;2022-12-17T05:25:19;-5.40;99.90
11617;DHT22;5864;52.998;9.068;2022-12-17T05:28:04;-5.40;99.90
11617;DHT22;5864;52.998;9.068;2022-12-17T05:30:52;-5.50;99.90
11617;DHT22;5864;52.998;9.068;2022-12-17T05:33:37;-5.60;99.90
11617;DHT22;5864;52.998;9.068;2022-12-17T05:36:22;-5.60;99.90
11617;DHT22;5864;52.998;9.068;2022-12-17T05:39:08;-6.00;99.90
11617;DHT22;5864;52.998;9.068;2022-12-17T05:41:53;-5.50;99.90
11617;DHT22;5864;52.998;9.068;2022-12-17T05:44:37;-5.50;99.90
11617;DHT22;5864;52.998;9.068;2022-12-17T05:47:24;-5.50;99.90
11617;DHT22;5864;52.998;9.068;2022-12-17T05:50:08;-5.40;99.90
11617;DHT22;5864;52.998;9.068;2022-12-17T05:52:56;-5.40;99.90
11617;DHT22;5864;52.998;9.068;2022-12-17T05:55:50;-5.40;99.90
11617;DHT22;5864;52.998;9.068;2022-12-17T05:58:35;-5.40;99.90
11617;DHT22;5864;52.998;9.068;2022-12-17T06:01:20;-5.40;99.90
11617;DHT22;5864;52.998;9.068;2022-12-17T06:04:11;-5.50;99.90
11617;DHT22;5864;52.998;9.068;2022-12-17T06:06:56;-5.40;99.90
11617;DHT22;5864;52.998;9.068;2022-12-17T06:09:41;-5.40;99.90
11617;DHT22;5864;52.998;9.068;2022-12-17T06:12:26;-5.40;99.90
11617;DHT22;5864;52.998;9.068;2022-12-17T06:15:11;-5.50;99.90
11617;DHT22;5864;52.998;9.068;2022-12-17T06:17:56;-5.50;99.90
11617;DHT22;5864;52.998;9.068;2022-12-17T06:20:54;-5.60;99.90
11617;DHT22;5864;52.998;9.068;2022-12-17T06:23:39;-5.60;99.90
11617;DHT22;5864;52.998;9.068;2022-12-17T06:26:24;-5.60;99.90
11617;DHT22;5864;52.998;9.068;2022-12-17T06:29:09;-5.60;99.90
11617;DHT22;5864;52.998;9.068;2022-12-17T06:31:54;-5.70;99.90
11617;DHT22;5864;52.998;9.068;2022-12-17T06:34:42;-5.70;99.90
11617;DHT22;5864;52.998;9.068;2022-12-17T06:37:37;-5.80;99.90
11617;DHT22;5864;52.998;9.068;2022-12-17T06:40:21;-5.80;99.90
11617;DHT22;5864;52.998;9.068;2022-12-17T06:43:07;-5.80;99.90
11617;DHT22;5864;52.998;9.068;2022-12-17T06:45:52;-5.80;99.90
11617;DHT22;5864;52.998;9.068;2022-12-17T06:48:37;-5.90;99.90
11617;DHT22;5864;52.998;9.068;2022-12-17T06:51:22;-5.90;99.90
11617;DHT22;5864;52.998;9.068;2022-12-17T06:54:08;-5.90;99.90
11617;DHT22;5864;52.998;9.068;2022-12-17T06:56:52;-5.90;99.90
11617;DHT22;5864;52.998;9.068;2022-12-17T06:59:40;-5.90;99.90
11617;DHT22;5864;52.998;9.068;2022-12-17T07:02:25;-5.90;99.90
11617;DHT22;5864;52.998;9.068;2022-12-17T07:05:10;-6.00;99.90
11617;DHT22;5864;52.998;9.068;2022-12-17T07:07:56;-5.90;99.90
11617;DHT22;5864;52.998;9.068;2022-12-17T07:10:43;-5.90;99.90
11617;DHT22;5864;52.998;9.068;2022-12-17T07:13:27;-5.80;99.90
11617;DHT22;5864;52.998;9.068;2022-12-17T07:16:12;-5.80;99.90
11617;DHT22;5864;52.998;9.068;2022-12-17T07:18:57;-5.90;99.90
11617;DHT22;5864;52.998;9.068;2022-12-17T07:21:42;-5.90;99.90
11617;DHT22;5864;52.998;9.068;2022-12-17T07:24:27;-5.90;99.90
11617;DHT22;5864;52.998;9.068;2022-12-17T07:27:13;-6.00;99.90
11617;DHT22;5864;52.998;9.068;2022-12-17T07:29:58;-6.00;99.90
11617;DHT22;5864;52.998;9.068;2022-12-17T07:32:43;-5.90;99.90
11617;DHT22;5864;52.998;9.068;2022-12-17T07:35:27;-6.00;99.90
11617;DHT22;5864;52.998;9.068;2022-12-17T07:38:15;-6.00;99.90
11617;DHT22;5864;52.998;9.068;2022-12-17T07:41:00;-5.90;99.90
11617;DHT22;5864;52.998;9.068;2022-12-17T07:43:46;-5.80;99.90
11617;DHT22;5864;52.998;9.068;2022-12-17T07:46:33;-5.90;99.90
11617;DHT22;5864;52.998;9.068;2022-12-17T07:49:18;-5.80;99.90
11617;DHT22;5864;52.998;9.068;2022-12-17T07:52:03;-5.80;99.90
11617;DHT22;5864;52.998;9.068;2022-12-17T07:54:48;-5.80;99.90
11617;DHT22;5864;52.998;9.068;2022-12-17T07:57:33;-5.80;99.90
11617;DHT22;5864;52.998;9.068;2022-12-17T08:00:19;-5.80;99.90
11617;DHT22;5864;52.998;9.068;2022-12-17T08:03:04;-5.70;99.90
11617;DHT22;5864;52.998;9.068;2022-12-17T08:05:49;-5.60;99.90
11617;DHT22;5864;52.998;9.068;2022-12-17T08:08:36;-5.50;99.90
11617;DHT22;5864;52.998;9.068;2022-12-17T08:11:23;-5.40;99.90
11617;DHT22;5864;52.998;9.068;2022-12-17T08:14:08;-5.40;99.90
11617;DHT22;5864;52.998;9.068;2022-12-17T08:16:55;-5.40;99.90
11617;DHT22;5864;52.998;9.068;2022-12-17T08:19:40;-5.40;99.90
11617;DHT22;5864;52.998;9.068;2022-12-17T08:22:24;-5.40;99.90
11617;DHT22;5864;52.998;9.068;2022-12-17T08:25:24;-5.30;99.90
11617;DHT22;5864;52.998;9.068;2022-12-17T08:28:09;-5.20;99.90
11617;DHT22;5864;52.998;9.068;2022-12-17T08:30:54;-4.60;99.90
11617;DHT22;5864;52.998;9.068;2022-12-17T08:33:40;-3.70;99.90
11617;DHT22;5864;52.998;9.068;2022-12-17T08:36:25;-2.80;76.00
11617;DHT22;5864;52.998;9.068;2022-12-17T08:39:18;-2.10;27.10
11617;DHT22;5864;52.998;9.068;2022-12-17T08:42:03;-1.60;4.70
11617;DHT22;5864;52.998;9.068;2022-12-17T08:44:48;-0.80;3.50
11617;DHT22;5864;52.998;9.068;2022-12-17T08:47:33;-0.10;1.00
11617;DHT22;5864;52.998;9.068;2022-12-17T08:50:20;0.10;1.00
11617;DHT22;5864;52.998;9.068;2022-12-17T08:53:05;0.20;1.00
11617;DHT22;5864;52.998;9.068;2022-12-17T08:55:49;-0.10;1.00
11617;DHT22;5864;52.998;9.068;2022-12-17T08:58:34;-0.40;1.00
11617;DHT22;5864;52.998;9.068;2022-12-17T09:01:19;-0.10;1.00
11617;DHT22;5864;52.998;9.068;2022-12-17T09:04:04;0.00;1.00
11617;DHT22;5864;52.998;9.068;2022-12-17T09:06:54;-0.20;1.00
11617;DHT22;5864;52.998;9.068;2022-12-17T09:09:39;-0.30;1.00
11617;DHT22;5864;52.998;9.068;2022-12-17T09:12:23;-0.20;1.00
11617;DHT22;5864;52.998;9.068;2022-12-17T09:15:08;0.10;1.00
11617;DHT22;5864;52.998;9.068;2022-12-17T09:17:53;-0.10;1.00
11617;DHT22;5864;52.998;9.068;2022-12-17T09:20:38;-0.60;1.00
11617;DHT22;5864;52.998;9.068;2022-12-17T09:23:24;-0.70;1.00
11617;DHT22;5864;52.998;9.068;2022-12-17T09:26:09;-1.10;1.00
11617;DHT22;5864;52.998;9.068;2022-12-17T09:28:54;-1.60;1.00
11617;DHT22;5864;52.998;9.068;2022-12-17T09:31:39;-2.10;7.90
11617;DHT22;5864;52.998;9.068;2022-12-17T09:34:23;-2.40;27.50
11617;DHT22;5864;52.998;9.068;2022-12-17T09:37:08;-2.60;38.00
11617;DHT22;5864;52.998;9.068;2022-12-17T09:39:54;-2.80;52.00
11617;DHT22;5864;52.998;9.068;2022-12-17T09:42:44;-2.90;61.90
11617;DHT22;5864;52.998;9.068;2022-12-17T09:45:36;-3.30;80.80
11617;DHT22;5864;52.998;9.068;2022-12-17T09:48:29;-3.50;96.50
11617;DHT22;5864;52.998;9.068;2022-12-17T09:51:20;-5.20;95.20
11617;DHT22;5864;52.998;9.068;2022-12-17T09:54:19;-3.50;98.80
11617;DHT22;5864;52.998;9.068;2022-12-17T09:57:12;-3.60;99.90
11617;DHT22;5864;52.998;9.068;2022-12-17T09:59:57;-3.70;99.90
11617;DHT22;5864;52.998;9.068;2022-12-17T10:02:42;-3.80;99.90
11617;DHT22;5864;52.998;9.068;2022-12-17T10:05:29;-3.80;99.90
11617;DHT22;5864;52.998;9.068;2022-12-17T10:08:17;-3.90;99.90
11617;DHT22;5864;52.998;9.068;2022-12-17T10:11:13;-3.80;99.90
11617;DHT22;5864;52.998;9.068;2022-12-17T10:14:09;-4.00;99.90
11617;DHT22;5864;52.998;9.068;2022-12-17T10:16:55;-4.00;99.90
11617;DHT22;5864;52.998;9.068;2022-12-17T10:19:40;-3.90;99.90
11617;DHT22;5864;52.998;9.068;2022-12-17T10:22:26;-3.90;99.90
11617;DHT22;5864;52.998;9.068;2022-12-17T10:25:14;-3.90;99.90
11617;DHT22;5864;52.998;9.068;2022-12-17T10:28:01;-3.70;99.90
11617;DHT22;5864;52.998;9.068;2022-12-17T10:30:48;-3.70;99.90
11617;DHT22;5864;52.998;9.068;2022-12-17T10:33:36;-3.80;99.90
11617;DHT22;5864;52.998;9.068;2022-12-17T10:36:20;-3.70;99.90
11617;DHT22;5864;52.998;9.068;2022-12-17T10:39:10;-3.70;99.90
11617;DHT22;5864;52.998;9.068;2022-12-17T10:41:56;-3.80;99.90
11617;DHT22;5864;52.998;9.068;2022-12-17T10:44:41;-3.70;99.90
11617;DHT22;5864;52.998;9.068;2022-12-17T10:47:33;-3.60;99.90
11617;DHT22;5864;52.998;9.068;2022-12-17T10:50:19;-3.90;99.90
11617;DHT22;5864;52.998;9.068;2022-12-17T10:53:15;-3.90;99.90
11617;DHT22;5864;52.998;9.068;2022-12-17T10:56:01;-3.80;99.90
11617;DHT22;5864;52.998;9.068;2022-12-17T10:58:50;-3.80;99.90
11617;DHT22;5864;52.998;9.068;2022-12-17T11:01:36;-3.50;99.90
11617;DHT22;5864;52.998;9.068;2022-12-17T11:04:25;-3.50;99.90
11617;DHT22;5864;52.998;9.068;2022-12-17T11:07:14;-3.40;99.90
11617;DHT22;5864;52.998;9.068;2022-12-17T11:10:02;-3.20;99.90
11617;DHT22;5864;52.998;9.068;2022-12-17T11:12:51;-3.20;99.90
11617;DHT22;5864;52.998;9.068;2022-12-17T11:15:41;-3.20;99.90
11617;DHT22;5864;52.998;9.068;2022-12-17T11:18:29;-3.10;99.90
11617;DHT22;5864;52.998;9.068;2022-12-17T11:21:23;-3.10;99.90
11617;DHT22;5864;52.998;9.068;2022-12-17T11:24:13;-3.10;99.90
11617;DHT22;5864;52.998;9.068;2022-12-17T11:27:03;-3.00;99.90
11617;DHT22;5864;52.998;9.068;2022-12-17T11:29:50;-3.00;99.90
11617;DHT22;5864;52.998;9.068;2022-12-17T11:32:52;-3.00;99.90
11617;DHT22;5864;52.998;9.068;2022-12-17T11:35:47;-2.90;99.90
11617;DHT22;5864;52.998;9.068;2022-12-17T11:38:37;-2.60;99.90
11617;DHT22;5864;52.998;9.068;2022-12-17T11:41:33;-2.60;99.90
11617;DHT22;5864;52.998;9.068;2022-12-17T11:44:31;-2.50;99.90
11617;DHT22;5864;52.998;9.068;2022-12-17T11:47:22;-2.60;99.90
11617;DHT22;5864;52.998;9.068;2022-12-17T11:50:18;-2.70;99.90
11617;DHT22;5864;52.998;9.068;2022-12-17T11:53:10;-2.60;99.90
11617;DHT22;5864;52.998;9.068;2022-12-17T11:56:08;-2.40;99.90
11617;DHT22;5864;52.998;9.068;2022-12-17T11:58:58;-2.40;99.90
11617;DHT22;5864;52.998;9.068;2022-12-17T12:01:47;-2.30;99.90
11617;DHT22;5864;52.998;9.068;2022-12-17T12:04:52;-2.30;99.90
11617;DHT22;5864;52.998;9.068;2022-12-17T12:07:48;-2.20;99.90
11617;DHT22;5864;52.998;9.068;2022-12-17T12:10:38;-2.20;99.90
11617;DHT22;5864;52.998;9.068;2022-12-17T12:13:31;-2.10;99.90
11617;DHT22;5864;52.998;9.068;2022-12-17T12:16:41;-1.90;99.90
11617;DHT22;5864;52.998;9.068;2022-12-17T12:19:39;-1.70;99.90
11617;DHT22;5864;52.998;9.068;2022-12-17T12:22:32;-1.70;99.90
11617;DHT22;5864;52.998;9.068;2022-12-17T12:25:28;-1.50;99.90
11617;DHT22;5864;52.998;9.068;2022-12-17T12:28:24;-1.30;99.90
11617;DHT22;5864;52.998;9.068;2022-12-17T12:31:21;-1.30;99.90
11617;DHT22;5864;52.998;9.068;2022-12-17T12:34:11;-1.30;99.90
11617;DHT22;5864;52.998;9.068;2022-12-17T12:36:59;-1.20;99.90
11617;DHT22;5864;52.998;9.068;2022-12-17T12:39:50;-1.20;99.90
11617;DHT22;5864;52.998;9.068;2022-12-17T12:42:41;-1.30;99.90
11617;DHT22;5864;52.998;9.068;2022-12-17T12:45:39;-1.20;99.90
11617;DHT22;5864;52.998;9.068;2022-12-17T12:48:36;-1.20;99.90
11617;DHT22;5864;52.998;9.068;2022-12-17T12:51:23;-1.20;99.90
11617;DHT22;5864;52.998;9.068;2022-12-17T12:54:24;-1.40;99.90
11617;DHT22;5864;52.998;9.068;2022-12-17T12:57:25;-1.50;99.90
11617;DHT22;5864;52.998;9.068;2022-12-17T13:00:26;-1.50;99.90
11617;DHT22;5864;52.998;9.068;2022-12-17T13:03:24;-1.40;99.90
11617;DHT22;5864;52.998;9.068;2022-12-17T13:06:12;-1.40;99.90
11617;DHT22;5864;52.998;9.068;2022-12-17T13:08:40;-1.30;99.90
11617;DHT22;5864;52.998;9.068;2022-12-17T13:11:10;-1.30;99.90
11617;DHT22;5864;52.998;9.068;2022-12-17T13:13:40;-1.40;99.90
11617;DHT22;5864;52.998;9.068;2022-12-17T13:16:30;-1.30;99.90
11617;DHT22;5864;52.998;9.068;2022-12-17T13:19:03;-1.40;99.90
11617;DHT22;5864;52.998;9.068;2022-12-17T13:21:33;-1.40;99.90
11617;DHT22;5864;52.998;9.068;2022-12-17T13:24:09;-1.40;99.90
11617;DHT22;5864;52.998;9.068;2022-12-17T13:26:44;-1.60;99.90
11617;DHT22;5864;52.998;9.068;2022-12-17T13:29:20;-1.60;99.90
11617;DHT22;5864;52.998;9.068;2022-12-17T13:32:02;-1.80;99.90
11617;DHT22;5864;52.998;9.068;2022-12-17T13:34:42;-2.00;99.90
11617;DHT22;5864;52.998;9.068;2022-12-17T13:37:19;-2.10;99.90
11617;DHT22;5864;52.998;9.068;2022-12-17T13:39:58;-2.10;99.90
11617;DHT22;5864;52.998;9.068;2022-12-17T13:42:30;-2.20;99.90
11617;DHT22;5864;52.998;9.068;2022-12-17T13:45:00;-2.20;99.90
11617;DHT22;5864;52.998;9.068;2022-12-17T13:47:30;-2.20;99.90
11617;DHT22;5864;52.998;9.068;2022-12-17T13:50:00;-2.20;99.90
11617;DHT22;5864;52.998;9.068;2022-12-17T13:52:30;-2.20;99.90
11617;DHT22;5864;52.998;9.068;2022-12-17T13:55:07;-2.20;99.90
11617;DHT22;5864;52.998;9.068;2022-12-17T13:57:36;-2.20;99.90
11617;DHT22;5864;52.998;9.068;2022-12-17T14:00:05;-2.20;99.90
11617;DHT22;5864;52.998;9.068;2022-12-17T14:02:34;-2.10;99.90
11617;DHT22;5864;52.998;9.068;2022-12-17T14:05:05;-2.30;99.90
11617;DHT22;5864;52.998;9.068;2022-12-17T14:07:38;-2.30;99.90
11617;DHT22;5864;52.998;9.068;2022-12-17T14:10:14;-2.30;99.90
11617;DHT22;5864;52.998;9.068;2022-12-17T14:12:42;-2.20;99.90
11617;DHT22;5864;52.998;9.068;2022-12-17T14:15:21;-2.20;99.90
11617;DHT22;5864;52.998;9.068;2022-12-17T14:17:51;-2.10;99.90
11617;DHT22;5864;52.998;9.068;2022-12-17T14:20:21;-2.10;99.90
11617;DHT22;5864;52.998;9.068;2022-12-17T14:22:53;-2.10;99.90
11617;DHT22;5864;52.998;9.068;2022-12-17T14:25:23;-2.20;99.90
11617;DHT22;5864;52.998;9.068;2022-12-17T14:27:53;-2.20;99.90
11617;DHT22;5864;52.998;9.068;2022-12-17T14:30:23;-2.10;99.90
11617;DHT22;5864;52.998;9.068;2022-12-17T14:32:51;-2.10;99.90
11617;DHT22;5864;52.998;9.068;2022-12-17T14:35:24;-2.10;99.90
11617;DHT22;5864;52.998;9.068;2022-12-17T14:37:53;-2.20;99.90
11617;DHT22;5864;52.998;9.068;2022-12-17T14:40:23;-2.10;99.90
11617;DHT22;5864;52.998;9.068;2022-12-17T14:42:52;-2.10;99.90
11617;DHT22;5864;52.998;9.068;2022-12-17T14:45:25;-2.20;99.90
11617;DHT22;5864;52.998;9.068;2022-12-17T14:47:54;-2.30;99.90
11617;DHT22;5864;52.998;9.068;2022-12-17T14:50:26;-2.40;99.90
11617;DHT22;5864;52.998;9.068;2022-12-17T14:52:57;-2.50;99.90
11617;DHT22;5864;52.998;9.068;2022-12-17T14:55:30;-2.50;99.90
11617;DHT22;5864;52.998;9.068;2022-12-17T14:58:17;-2.60;99.90
11617;DHT22;5864;52.998;9.068;2022-12-17T15:00:47;-2.70;99.90
11617;DHT22;5864;52.998;9.068;2022-12-17T15:03:19;-2.80;99.90
11617;DHT22;5864;52.998;9.068;2022-12-17T15:05:51;-2.80;99.90
11617;DHT22;5864;52.998;9.068;2022-12-17T15:08:20;-3.00;99.90
11617;DHT22;5864;52.998;9.068;2022-12-17T15:10:48;-3.10;99.90
11617;DHT22;5864;52.998;9.068;2022-12-17T15:13:16;-3.50;99.90
11617;DHT22;5864;52.998;9.068;2022-12-17T15:15:44;-3.30;99.90
11617;DHT22;5864;52.998;9.068;2022-12-17T15:18:11;-3.40;99.90
11617;DHT22;5864;52.998;9.068;2022-12-17T15:20:39;-3.50;99.90
11617;DHT22;5864;52.998;9.068;2022-12-17T15:23:13;-3.50;99.90
11617;DHT22;5864;52.998;9.068;2022-12-17T15:25:43;-3.50;99.90
11617;DHT22;5864;52.998;9.068;2022-12-17T15:28:11;-3.60;99.90
11617;DHT22;5864;52.998;9.068;2022-12-17T15:30:39;-3.70;99.90
11617;DHT22;5864;52.998;9.068;2022-12-17T15:33:08;-3.70;99.90
11617;DHT22;5864;52.998;9.068;2022-12-17T15:35:36;-3.70;99.90
11617;DHT22;5864;52.998;9.068;2022-12-17T15:38:04;-3.70;99.90
11617;DHT22;5864;52.998;9.068;2022-12-17T15:40:32;-3.80;99.90
11617;DHT22;5864;52.998;9.068;2022-12-17T15:43:01;-3.80;99.90
11617;DHT22;5864;52.998;9.068;2022-12-17T15:45:37;-3.80;99.90
11617;DHT22;5864;52.998;9.068;2022-12-17T15:48:05;-3.90;99.90
11617;DHT22;5864;52.998;9.068;2022-12-17T15:50:32;-4.00;99.90
11617;DHT22;5864;52.998;9.068;2022-12-17T15:53:02;-4.10;99.90
11617;DHT22;5864;52.998;9.068;2022-12-17T15:55:30;-4.00;99.90
11617;DHT22;5864;52.998;9.068;2022-12-17T15:57:57;-4.10;99.90
11617;DHT22;5864;52.998;9.068;2022-12-17T16:00:26;-4.10;99.90
11617;DHT22;5864;52.998;9.068;2022-12-17T16:02:54;-4.20;99.90
11617;DHT22;5864;52.998;9.068;2022-12-17T16:05:21;-4.20;99.90
11617;DHT22;5864;52.998;9.068;2022-12-17T16:07:50;-4.30;99.90
11617;DHT22;5864;52.998;9.068;2022-12-17T16:10:18;-4.30;99.90
11617;DHT22;5864;52.998;9.068;2022-12-17T16:12:45;-4.40;99.90
11617;DHT22;5864;52.998;9.068;2022-12-17T16:15:13;-4.40;99.90
11617;DHT22;5864;52.998;9.068;2022-12-17T16:17:42;-4.40;99.90
11617;DHT22;5864;52.998;9.068;2022-12-17T16:20:10;-4.40;99.90
11617;DHT22;5864;52.998;9.068;2022-12-17T16:22:38;-4.40;99.90
11617;DHT22;5864;52.998;9.068;2022-12-17T16:25:06;-4.40;99.90
11617;DHT22;5864;52.998;9.068;2022-12-17T16:27:33;-4.40;99.90
11617;DHT22;5864;52.998;9.068;2022-12-17T16:30:01;-4.40;99.90
11617;DHT22;5864;52.998;9.068;2022-12-17T16:32:29;-4.30;99.90
11617;DHT22;5864;52.998;9.068;2022-12-17T16:34:58;-4.30;99.90
11617;DHT22;5864;52.998;9.068;2022-12-17T16:37:25;-4.30;99.90
11617;DHT22;5864;52.998;9.068;2022-12-17T16:39:53;-4.30;99.90
11617;DHT22;5864;52.998;9.068;2022-12-17T16:42:20;-4.30;99.90
11617;DHT22;5864;52.998;9.068;2022-12-17T16:44:48;-4.30;99.90
11617;DHT22;5864;52.998;9.068;2022-12-17T16:47:15;-4.40;99.90
11617;DHT22;5864;52.998;9.068;2022-12-17T16:49:43;-4.50;99.90
11617;DHT22;5864;52.998;9.068;2022-12-17T16:52:12;-4.50;99.90
11617;DHT22;5864;52.998;9.068;2022-12-17T16:54:39;-4.40;99.90
11617;DHT22;5864;52.998;9.068;2022-12-17T16:57:07;-4.40;99.90
11617;DHT22;5864;52.998;9.068;2022-12-17T16:59:34;-4.40;99.90
11617;DHT22;5864;52.998;9.068;2022-12-17T17:02:01;-4.40;99.90
11617;DHT22;5864;52.998;9.068;2022-12-17T17:04:29;-4.40;99.90
11617;DHT22;5864;52.998;9.068;2022-12-17T17:06:57;-4.40;99.90
11617;DHT22;5864;52.998;9.068;2022-12-17T17:09:26;-4.50;99.90
11617;DHT22;5864;52.998;9.068;2022-12-17T17:11:54;-4.50;99.90
11617;DHT22;5864;52.998;9.068;2022-12-17T17:14:22;-4.50;99.90
11617;DHT22;5864;52.998;9.068;2022-12-17T17:16:50;-4.50;99.90
11617;DHT22;5864;52.998;9.068;2022-12-17T17:19:18;-2.70;99.90
11617;DHT22;5864;52.998;9.068;2022-12-17T17:21:50;-4.30;99.90
11617;DHT22;5864;52.998;9.068;2022-12-17T17:24:20;-4.40;99.90
11617;DHT22;5864;52.998;9.068;2022-12-17T17:26:51;-4.30;99.90